Loisir ou Compétition : Rejoignez un Club de la Fédération

Résultats

CHAMPIONNATS DE FRANCE SKIATHLON

LA FECLAZ SAVOIE GRAND REVARD

POURS-D Dames

Jury de Compétition

Délégué Technique :
DHEYRIAT FABIENNE ()
D.T. Adjoint :
FROSSARD CHRISTIAN (SA)
Dir. Epreuve :
REMY PATRICK (SA)

Caractéristiques de la Piste

Piste :
Site de Replis
Distance :
5 - 5 km
Point Haut :
 
Point Bas :
 
Montée Tot. :
 
Montée Max. :
 
Homologation :
 

Pénalité Appliquée :
5.0000
Coefficient :
1400

Catégorie :
U16->SEN
Style :
C
Clt Dos Clt/Cat Code An Nom Prénom Com Club Temps Ecart Points
Classés
1 225 1/SEN FFS2122387 1984 THOMAS HUGUE CORALINE AP EMHM/ORRES 33:27.2 00:00.0 5.00
2 222 2/SEN FFS2261239 1986 FAIVRE PICON ANOUK MJ EMHM/PONTARL 33:30.9 00:03.7 7.58
3 223 3/SEN FFS2292494 1991 AYMONIER CELIA MJ EMHM/FOURGS 33:38.8 00:11.6 13.09
4 226 4/SEN FFS2293530 1988 DABUDYK AURELIE MB SCNP ROCHOIS 33:57.3 00:30.1 25.99
5 232 5/SEN FFS2266678 1991 COLIN MARION SA CS LA FECLAZ 33:59.7 00:32.5 27.67
6 228 6/SEN FFS2622862 1993 KROMER MARIE MB PRAZ LYS-SOM 34:26.0 00:58.8 46.01
7 224 7/SEN FFS1341311 1990 BUILLET MARION SA CS SAISIES 34:52.5 01:25.3 64.50
8 235 8/SEN FFS2613215 1992 PESSEY IRIS MB SC GD BORNAN 34:56.5 01:29.3 67.29
9 233 1/U20 FFS2633735 1995 DAMIANI LEA MB VILLARD/BOEG 34:57.6 01:30.4 68.05
10 227 9/SEN FFS2265148 1989 SIMILLE MANON SA SC BOZEL 35:01.2 01:34.0 70.56
11 236 1/U18 FFS2638906 1997 GIRAUD LAURIE AP ES VALLOUISE 35:03.1 01:35.9 71.89
12 257 10/SEN FFS2613018 1994 DEMANGEAT RACHEL SA CS LA FECLAZ 35:07.9 01:40.7 75.24
13 234 11/SEN FFS2618811 1993 DEVAUX JULIA DA CS VILLARD 35:08.7 01:41.5 75.80
14 248 2/U18 FFS2638907 1997 GROS CECILE AP ES VALLOUISE 35:17.0 01:49.8 81.58
15 231 12/SEN FFS2620471 1992 LACROIX ROXANE MJ BOIS D'AMONT 35:37.0 02:09.8 95.53
16 237 13/SEN FFS2617672 1994 CHOPARD LALLIER CELINE MJ VAL MORTEAU 35:40.7 02:13.5 98.11
17 246 3/U18 FFS2649041 1998 QUINTIN LENA MB SC GD BORNAN 35:46.2 02:19.0 101.95
18 241 2/U20 FFS2615397 1996 VANDERWEYEN LAURA AP GAP-BAYARD 35:47.2 02:20.0 102.65
19 230 14/SEN FFS2626761 1993 GODIN MARIE CAROLINE MJ BOIS D'AMONT 35:49.9 02:22.7 104.53
20 239 4/U18 FFS2620847 1998 CHAMIOT MAITRAL LAURA SA CS SAISIES 35:50.4 02:23.2 104.88
21 229 3/U20 FFS2638587 1996 CLAUDEL DELPHINE MV LA BRESSAUDE 35:50.5 02:23.3 104.95
22 242 15/SEN FFS2628103 1994 PETITJEAN MATHILDE MB SCNP ROCHOIS 36:10.9 02:43.7 119.18
23 250 4/U20 FFS2643697 1996 ZAMBAUX LEA MJ OLYMP MT DOR 36:11.2 02:44.0 119.39
24 256 5/U18 FFS2632334 1998 SUTTER LORIANE MJ SMBM/MORBIER 36:12.3 02:45.1 120.16
25 277 1/U16 FFS2644726 1999 [G]RICHON LOUISE SA CS LA FECLAZ 36:16.3 02:49.1 122.95
26 279 6/U18 FFS2644377 1998 CHENAL CLEMENCE SA SC PEISEY VA 36:25.3 02:58.1 129.22
27 245 5/U20 FFS2626362 1995 SERCA CECILE AP ES VALLOUISE 36:28.8 03:01.6 131.66
28 247 16/SEN FFS2619875 1994 TRUJON ANDREA MJ PREMANON SC 36:29.7 03:02.5 132.29
29 264 6/U20 FFS2638033 1995 BLONDEAU MAELISS MJ SC MONT NOIR 36:30.5 03:03.3 132.85
30 251 7/U18 FFS2615767 1997 BOVAGNE LINA MB CS MEGEVE 36:41.6 03:14.4 140.59
31 266 8/U18 FFS2643589 1998 CHALIVET AMELIE SA MONOLITHE SF 36:44.3 03:17.1 142.48
32 278 9/U18 FFS2650090 1998 PAULY ELOISE DA SNB CHAMROUS 36:46.7 03:19.5 144.15
33 265 10/U18 FFS2638878 1997 FLOCHON LAURIE SA CS LA FECLAZ 36:46.8 03:19.6 144.22
34 254 11/U18 FFS2619948 1997 BRON JULIE MB LES GETS S.C 36:48.1 03:20.9 145.13
35 263 17/SEN FFS2620351 1993 CHORON ALICIA MB SC D'AGY 36:50.2 03:23.0 146.59
36 292 18/SEN FFS2680591 1992 IZZO ELIZABETH AP ORRES EMBRUN 36:58.2 03:31.0 152.17
37 252 7/U20 FFS2631636 1996 BARTHELEMY KATIA AP ES VALLOUISE 36:59.8 03:32.6 153.29
38 268 8/U20 FFS2647377 1996 LAURENCE CLEMENTINE MJ CSR PONTARLI 37:00.8 03:33.6 153.98
39 285 19/SEN FFS2676974 1978 BICOVA KAROLINA MJ CHAUX NEUVE 37:04.5 03:37.3 156.56
40 243 12/U18 FFS2639197 1997 CHABRE MANON AP GAP-BAYARD 37:10.3 03:43.1 160.61
41 267 13/U18 FFS2649305 1997 SANDOZ JUSTINE MJ AS VERRIERES 37:12.4 03:45.2 162.07
42 262 14/U18 FFS2649037 1998 PIERREL MARGAUX MB SC GD BORNAN 37:12.6 03:45.4 162.21
43 284 2/U16 FFS2667438 1999 [G]GAL MELISSA MB SCNP ROCHOIS 37:13.2 03:46.0 162.63
44 255 15/U18 FFS2626100 1997 LOCATELLI EVA DA SA MEAUDRAIS 37:14.6 03:47.4 163.61
45 281 3/U16 FFS2654813 1999 [G]MISSILLIER LOUISE MB SC GD BORNAN 37:15.5 03:48.3 164.24
46 240 9/U20 FFS2626799 1995 YSEBAERT ANAIS AP AS EDELWEISS 37:32.0 04:04.8 175.75
47 259 10/U20 FFS2632062 1996 GOALABRE LOUISE AP SC QUEYRAS 37:33.5 04:06.3 176.79
48 253 16/U18 FFS2649232 1998 GILBERT CORA AP SERRE CHEVAL 37:36.7 04:09.5 179.02
49 258 17/U18 FFS2649316 1998 VULLIET SOLENE MB SCNP ROCHOIS 37:39.9 04:12.7 181.26
50 272 18/U18 FFS2652903 1997 SALVI LAURA MJ A.S MOUTHE 37:40.8 04:13.6 181.88
51 270 19/U18 FFS2628759 1997 LYAUDET MARGOT LY US CORMARANC 37:44.3 04:17.1 184.32
52 260 11/U20 FFS2654516 1996 TOURNAY FANNY SA CS LA FECLAZ 37:52.3 04:25.1 189.90
53 286 4/U16 FFS2643373 1999 [G]BARTHELEMY ANOUK DA VERCORS SKF 38:18.0 04:50.8 207.83
54 238 20/SEN FFS2625590 1994 VULLIET CONSTANCE MB SC GD BORNAN 38:21.1 04:53.9 209.99
54 280 12/U20 FFS2643953 1995 POURROY MARION SA CS LA FECLAZ 38:21.1 04:53.9 209.99
56 261 20/U18 FFS2643743 1997 BASTARD ROSSET ISALINE MB SC GD BORNAN 38:26.7 04:59.5 213.90
57 249 13/U20 FFS2637859 1996 BENTZ CORALIE MB VILLARD/BOEG 38:31.0 05:03.8 216.90
58 271 21/U18 FFS2644183 1998 PELLEGRIN LISA AP SC QUEYRAS 38:35.6 05:08.4 220.11
59 287 22/U18 FFS2649507 1998 LAMBERT JENNIFER SA CS LA FECLAZ 39:02.3 05:35.1 238.73
60 283 14/U20 FFS2638939 1996 GOCYK ANGELE LY CS VALROMEY 39:28.3 06:01.1 256.86
61 288 23/U18 FFS2623256 1998 PAGET JULIE MJ SMBM/MORBIER 39:40.1 06:12.9 265.09
62 273 15/U20 FFS2603113 1995 PERRILLAT AMEDE MAILYS SA CS LA FECLAZ 39:49.0 06:21.8 271.30
63 289 24/U18 FFS2639332 1998 VOLTA JULIE MJ HT JURA SKI 39:58.2 06:31.0 277.72
64 276 21/SEN FFS2615048 1993 MADARY LISE DA CS VILLARD 40:06.8 06:39.6 283.72
65 282 16/U20 FFS2637325 1996 BE LOUISE SA CS LA FECLAZ 40:38.3 07:11.1 305.69
66 274 17/U20 FFS2631420 1996 HOURS BERANGERE SA CS LA FECLAZ 42:34.9 09:07.7 387.01
67 290 25/U18 FFS2654870 1997 JANIN MARGAUX SA CN REVARD 44:04.3 10:37.1 449.37
Abandons
221 FFS2194259 1985 JEAN AURORE MJ DOUA/GDVAUX
269 FFS2649320 1998 FOURNIER FANNY MB SCNP ROCHOIS
Non partants
244 FFS2624800 1995 TARDY NOEMIE SA SC ARECHES
275 FFS2655078 1999 [G]DOLCI FLORA AP AS EDELWEISS